sensor_id;sensor_type;location;lat;lon;timestamp;pressure;altitude;pressure_sealevel;temperature;humidity
39223;BME280;24936;46.328;11.026;2023-03-14T00:00:54;93524.03;;;5.90;81.03
39223;BME280;24936;46.328;11.026;2023-03-14T00:03:19;93519.78;;;5.99;81.88
39223;BME280;24936;46.328;11.026;2023-03-14T00:05:45;93511.97;;;5.99;81.11
39223;BME280;24936;46.328;11.026;2023-03-14T00:08:10;93505.34;;;5.95;80.88
39223;BME280;24936;46.328;11.026;2023-03-14T00:10:36;93497.13;;;6.09;80.46
39223;BME280;24936;46.328;11.026;2023-03-14T00:13:02;93503.06;;;6.11;81.96
39223;BME280;24936;46.328;11.026;2023-03-14T00:15:27;93500.41;;;5.92;82.28
39223;BME280;24936;46.328;11.026;2023-03-14T00:17:53;93487.63;;;5.89;82.34
39223;BME280;24936;46.328;11.026;2023-03-14T00:20:18;93490.34;;;5.77;83.48
39223;BME280;24936;46.328;11.026;2023-03-14T00:22:44;93488.78;;;5.65;83.68
39223;BME280;24936;46.328;11.026;2023-03-14T00:25:10;93481.34;;;5.60;84.89
39223;BME280;24936;46.328;11.026;2023-03-14T00:27:36;93488.13;;;5.63;85.80
39223;BME280;24936;46.328;11.026;2023-03-14T00:30:02;93471.72;;;5.51;86.00
39223;BME280;24936;46.328;11.026;2023-03-14T00:32:27;93469.53;;;5.46;86.17
39223;BME280;24936;46.328;11.026;2023-03-14T00:34:53;93453.56;;;5.40;86.57
39223;BME280;24936;46.328;11.026;2023-03-14T00:37:18;93455.78;;;5.44;87.51
39223;BME280;24936;46.328;11.026;2023-03-14T00:39:44;93466.72;;;5.28;88.02
39223;BME280;24936;46.328;11.026;2023-03-14T00:42:09;93460.63;;;5.18;88.84
39223;BME280;24936;46.328;11.026;2023-03-14T00:44:35;93459.06;;;5.05;89.87
39223;BME280;24936;46.328;11.026;2023-03-14T00:47:00;93458.41;;;5.13;90.55
39223;BME280;24936;46.328;11.026;2023-03-14T00:49:26;93462.16;;;5.20;90.72
39223;BME280;24936;46.328;11.026;2023-03-14T00:51:52;93454.84;;;5.14;91.04
39223;BME280;24936;46.328;11.026;2023-03-14T00:54:19;93455.09;;;5.11;91.46
39223;BME280;24936;46.328;11.026;2023-03-14T00:56:44;93427.06;;;5.03;91.95
39223;BME280;24936;46.328;11.026;2023-03-14T00:59:11;93434.78;;;5.05;92.60
39223;BME280;24936;46.328;11.026;2023-03-14T01:01:37;93426.13;;;5.04;92.65
39223;BME280;24936;46.328;11.026;2023-03-14T01:04:03;93416.28;;;5.18;92.79
39223;BME280;24936;46.328;11.026;2023-03-14T01:06:29;93399.06;;;5.05;93.14
39223;BME280;24936;46.328;11.026;2023-03-14T01:08:56;93395.22;;;5.00;93.45
39223;BME280;24936;46.328;11.026;2023-03-14T01:11:29;93367.47;;;4.99;93.70
39223;BME280;24936;46.328;11.026;2023-03-14T01:13:55;93364.91;;;5.09;93.91
39223;BME280;24936;46.328;11.026;2023-03-14T01:16:23;93365.06;;;5.07;93.72
39223;BME280;24936;46.328;11.026;2023-03-14T01:18:48;93368.31;;;4.99;93.98
39223;BME280;24936;46.328;11.026;2023-03-14T01:21:17;93334.28;;;5.01;94.47
39223;BME280;24936;46.328;11.026;2023-03-14T01:23:43;93340.34;;;5.11;94.46
39223;BME280;24936;46.328;11.026;2023-03-14T01:26:10;93339.94;;;5.06;94.68
39223;BME280;24936;46.328;11.026;2023-03-14T01:28:37;93315.22;;;5.10;94.79
39223;BME280;24936;46.328;11.026;2023-03-14T01:31:04;93310.66;;;4.93;94.57
39223;BME280;24936;46.328;11.026;2023-03-14T01:33:30;93315.22;;;5.00;95.12
39223;BME280;24936;46.328;11.026;2023-03-14T01:35:55;93290.63;;;5.03;95.25
39223;BME280;24936;46.328;11.026;2023-03-14T01:38:21;93270.47;;;5.05;95.54
39223;BME280;24936;46.328;11.026;2023-03-14T01:40:46;93260.56;;;4.99;95.48
39223;BME280;24936;46.328;11.026;2023-03-14T01:43:17;93266.47;;;5.01;95.32
39223;BME280;24936;46.328;11.026;2023-03-14T01:46:14;93263.88;;;5.01;95.45
39223;BME280;24936;46.328;11.026;2023-03-14T01:54:11;93277.44;;;4.95;95.83
39223;BME280;24936;46.328;11.026;2023-03-14T01:56:40;93265.38;;;4.94;95.87
39223;BME280;24936;46.328;11.026;2023-03-14T01:59:09;93222.00;;;4.93;96.10
39223;BME280;24936;46.328;11.026;2023-03-14T02:01:35;93201.69;;;4.86;95.88
39223;BME280;24936;46.328;11.026;2023-03-14T02:04:03;93212.94;;;4.97;96.04
39223;BME280;24936;46.328;11.026;2023-03-14T02:06:51;93216.22;;;4.89;96.34
39223;BME280;24936;46.328;11.026;2023-03-14T02:09:18;93218.72;;;4.90;96.44
39223;BME280;24936;46.328;11.026;2023-03-14T02:11:44;93222.53;;;4.86;96.73
39223;BME280;24936;46.328;11.026;2023-03-14T02:14:19;93228.84;;;4.84;96.77
39223;BME280;24936;46.328;11.026;2023-03-14T02:16:47;93208.69;;;4.86;96.95
39223;BME280;24936;46.328;11.026;2023-03-14T02:19:14;93205.41;;;4.94;96.77
39223;BME280;24936;46.328;11.026;2023-03-14T02:24:15;93202.53;;;4.87;96.86
39223;BME280;24936;46.328;11.026;2023-03-14T02:29:31;93190.81;;;4.81;96.95
39223;BME280;24936;46.328;11.026;2023-03-14T02:31:59;93192.63;;;4.90;97.21
39223;BME280;24936;46.328;11.026;2023-03-14T02:34:24;93179.59;;;4.90;96.80
39223;BME280;24936;46.328;11.026;2023-03-14T02:36:52;93163.53;;;4.85;96.78
39223;BME280;24936;46.328;11.026;2023-03-14T02:39:29;93167.78;;;4.86;97.06
39223;BME280;24936;46.328;11.026;2023-03-14T02:41:58;93173.53;;;4.90;96.96
39223;BME280;24936;46.328;11.026;2023-03-14T02:44:24;93159.97;;;4.86;96.88
39223;BME280;24936;46.328;11.026;2023-03-14T02:46:49;93157.09;;;4.89;96.96
39223;BME280;24936;46.328;11.026;2023-03-14T02:49:16;93152.41;;;4.83;96.96
39223;BME280;24936;46.328;11.026;2023-03-14T02:51:43;93144.88;;;4.90;96.72
39223;BME280;24936;46.328;11.026;2023-03-14T02:54:10;93150.38;;;4.87;96.89
39223;BME280;24936;46.328;11.026;2023-03-14T02:56:35;93152.16;;;4.86;96.78
39223;BME280;24936;46.328;11.026;2023-03-14T02:59:04;93152.84;;;4.88;96.63
39223;BME280;24936;46.328;11.026;2023-03-14T03:01:30;93153.53;;;4.81;96.81
39223;BME280;24936;46.328;11.026;2023-03-14T03:03:55;93141.28;;;4.91;96.86
39223;BME280;24936;46.328;11.026;2023-03-14T03:06:21;93134.72;;;4.87;96.86
39223;BME280;24936;46.328;11.026;2023-03-14T03:08:46;93132.25;;;4.85;96.76
39223;BME280;24936;46.328;11.026;2023-03-14T03:11:12;93131.56;;;4.83;96.95
39223;BME280;24936;46.328;11.026;2023-03-14T03:13:46;93139.09;;;4.86;96.81
39223;BME280;24936;46.328;11.026;2023-03-14T03:16:16;93143.38;;;4.87;96.89
39223;BME280;24936;46.328;11.026;2023-03-14T03:18:42;93121.28;;;4.92;97.12
39223;BME280;24936;46.328;11.026;2023-03-14T03:21:07;93117.81;;;4.91;96.96
39223;BME280;24936;46.328;11.026;2023-03-14T03:23:34;93108.50;;;4.88;96.89
39223;BME280;24936;46.328;11.026;2023-03-14T03:26:00;93114.25;;;4.92;96.92
39223;BME280;24936;46.328;11.026;2023-03-14T03:28:25;93102.06;;;4.83;96.82
39223;BME280;24936;46.328;11.026;2023-03-14T03:30:51;93114.81;;;4.96;97.24
39223;BME280;24936;46.328;11.026;2023-03-14T03:33:17;93112.19;;;4.96;97.08
39223;BME280;24936;46.328;11.026;2023-03-14T03:35:49;93110.28;;;4.88;97.15
39223;BME280;24936;46.328;11.026;2023-03-14T03:38:16;93110.28;;;4.88;97.12
39223;BME280;24936;46.328;11.026;2023-03-14T03:40:42;93110.53;;;4.95;97.00
39223;BME280;24936;46.328;11.026;2023-03-14T03:43:10;93115.66;;;4.86;97.34
39223;BME280;24936;46.328;11.026;2023-03-14T03:45:36;93108.38;;;4.80;97.10
39223;BME280;24936;46.328;11.026;2023-03-14T03:48:01;93097.97;;;4.80;97.25
39223;BME280;24936;46.328;11.026;2023-03-14T03:50:27;93106.75;;;4.79;97.03
39223;BME280;24936;46.328;11.026;2023-03-14T03:52:52;93115.53;;;4.78;97.53
39223;BME280;24936;46.328;11.026;2023-03-14T03:55:21;93103.03;;;4.72;97.25
39223;BME280;24936;46.328;11.026;2023-03-14T03:57:51;93100.16;;;4.75;97.54
39223;BME280;24936;46.328;11.026;2023-03-14T04:00:16;93098.22;;;4.77;97.61
39223;BME280;24936;46.328;11.026;2023-03-14T04:02:42;93095.75;;;4.75;97.50
39223;BME280;24936;46.328;11.026;2023-03-14T04:05:08;93082.44;;;4.79;97.55
39223;BME280;24936;46.328;11.026;2023-03-14T04:07:33;93091.09;;;4.79;97.68
39223;BME280;24936;46.328;11.026;2023-03-14T04:09:59;93091.38;;;4.76;97.67
39223;BME280;24936;46.328;11.026;2023-03-14T04:12:24;93092.31;;;4.75;97.69
39223;BME280;24936;46.328;11.026;2023-03-14T04:14:50;93055.00;;;4.74;97.79
39223;BME280;24936;46.328;11.026;2023-03-14T04:17:15;93054.19;;;4.74;97.77
39223;BME280;24936;46.328;11.026;2023-03-14T04:19:44;93070.91;;;4.81;97.87
39223;BME280;24936;46.328;11.026;2023-03-14T04:22:15;93060.34;;;4.83;97.65
39223;BME280;24936;46.328;11.026;2023-03-14T04:24:41;93041.69;;;4.78;97.52
39223;BME280;24936;46.328;11.026;2023-03-14T04:27:10;93042.81;;;4.75;97.53
39223;BME280;24936;46.328;11.026;2023-03-14T04:29:35;93052.97;;;4.78;97.67
39223;BME280;24936;46.328;11.026;2023-03-14T04:32:00;93054.59;;;4.79;97.60
39223;BME280;24936;46.328;11.026;2023-03-14T04:34:26;93052.66;;;4.81;97.41
39223;BME280;24936;46.328;11.026;2023-03-14T04:36:51;93050.19;;;4.80;97.56
39223;BME280;24936;46.328;11.026;2023-03-14T04:39:17;93046.09;;;4.77;97.31
39223;BME280;24936;46.328;11.026;2023-03-14T04:41:44;93027.97;;;4.85;97.50
39223;BME280;24936;46.328;11.026;2023-03-14T04:46:54;93007.69;;;4.79;97.54
39223;BME280;24936;46.328;11.026;2023-03-14T04:49:20;93005.06;;;4.79;97.67
39223;BME280;24936;46.328;11.026;2023-03-14T04:51:45;93001.63;;;4.88;97.73
39223;BME280;24936;46.328;11.026;2023-03-14T04:54:11;93001.59;;;4.98;97.57
39223;BME280;24936;46.328;11.026;2023-03-14T04:56:36;92992.69;;;4.91;97.54
39223;BME280;24936;46.328;11.026;2023-03-14T04:59:02;92987.22;;;4.84;97.44
39223;BME280;24936;46.328;11.026;2023-03-14T05:01:28;92998.84;;;5.00;97.31
39223;BME280;24936;46.328;11.026;2023-03-14T05:03:53;92993.91;;;4.97;97.28
39223;BME280;24936;46.328;11.026;2023-03-14T05:06:19;92998.84;;;5.00;97.06
39223;BME280;24936;46.328;11.026;2023-03-14T05:08:44;92992.00;;;4.89;97.36
39223;BME280;24936;46.328;11.026;2023-03-14T05:11:13;92982.13;;;4.93;97.20
39223;BME280;24936;46.328;11.026;2023-03-14T05:13:45;92992.66;;;5.01;96.98
39223;BME280;24936;46.328;11.026;2023-03-14T05:16:13;92996.81;;;4.94;97.25
39223;BME280;24936;46.328;11.026;2023-03-14T05:18:39;92975.78;;;4.95;97.18
39223;BME280;24936;46.328;11.026;2023-03-14T05:21:04;92956.34;;;4.89;97.24
39223;BME280;24936;46.328;11.026;2023-03-14T05:23:30;92946.97;;;4.97;96.77
39223;BME280;24936;46.328;11.026;2023-03-14T05:25:55;92934.59;;;4.99;97.00
39223;BME280;24936;46.328;11.026;2023-03-14T05:28:21;92917.31;;;4.98;96.92
39223;BME280;24936;46.328;11.026;2023-03-14T05:30:46;92923.41;;;5.16;96.98
39223;BME280;24936;46.328;11.026;2023-03-14T05:33:12;92906.31;;;5.04;97.05
39223;BME280;24936;46.328;11.026;2023-03-14T05:35:37;92896.72;;;4.95;97.05
39223;BME280;24936;46.328;11.026;2023-03-14T05:38:03;92902.25;;;4.92;97.34
39223;BME280;24936;46.328;11.026;2023-03-14T05:40:28;92876.47;;;4.88;97.44
39223;BME280;24936;46.328;11.026;2023-03-14T05:42:54;92873.72;;;4.90;97.45
39223;BME280;24936;46.328;11.026;2023-03-14T05:45:19;92863.72;;;4.85;97.62
39223;BME280;24936;46.328;11.026;2023-03-14T05:47:45;92872.19;;;4.97;97.75
39223;BME280;24936;46.328;11.026;2023-03-14T05:50:10;92861.88;;;4.96;97.91
39223;BME280;24936;46.328;11.026;2023-03-14T05:52:37;92887.44;;;4.92;97.88
39223;BME280;24936;46.328;11.026;2023-03-14T05:55:02;92895.41;;;4.90;97.90
39223;BME280;24936;46.328;11.026;2023-03-14T05:57:28;92908.44;;;4.90;98.09
39223;BME280;24936;46.328;11.026;2023-03-14T05:59:54;92926.09;;;4.97;98.02
39223;BME280;24936;46.328;11.026;2023-03-14T06:02:19;92931.91;;;4.90;98.06
39223;BME280;24936;46.328;11.026;2023-03-14T06:04:45;92929.56;;;4.87;98.08
39223;BME280;24936;46.328;11.026;2023-03-14T06:07:10;92942.34;;;4.90;98.05
39223;BME280;24936;46.328;11.026;2023-03-14T06:09:36;92943.72;;;4.85;98.33
39223;BME280;24936;46.328;11.026;2023-03-14T06:12:01;92944.03;;;5.10;98.10
39223;BME280;24936;46.328;11.026;2023-03-14T06:14:26;92939.38;;;5.03;98.12
39223;BME280;24936;46.328;11.026;2023-03-14T06:16:52;92949.72;;;4.95;97.98
39223;BME280;24936;46.328;11.026;2023-03-14T06:19:18;92945.63;;;4.93;98.08
39223;BME280;24936;46.328;11.026;2023-03-14T06:21:43;92943.13;;;4.91;98.15
39223;BME280;24936;46.328;11.026;2023-03-14T06:24:09;92934.56;;;5.09;98.14
39223;BME280;24936;46.328;11.026;2023-03-14T06:26:35;92945.09;;;5.17;97.96
39223;BME280;24936;46.328;11.026;2023-03-14T06:29:03;92940.44;;;5.20;98.05
39223;BME280;24936;46.328;11.026;2023-03-14T06:31:59;92936.66;;;5.33;97.75
39223;BME280;24936;46.328;11.026;2023-03-14T06:34:24;92927.56;;;5.37;97.80
39223;BME280;24936;46.328;11.026;2023-03-14T06:36:50;92925.44;;;5.23;97.62
39223;BME280;24936;46.328;11.026;2023-03-14T06:39:16;92931.97;;;5.09;97.57
39223;BME280;24936;46.328;11.026;2023-03-14T06:41:41;92931.53;;;5.13;97.67
39223;BME280;24936;46.328;11.026;2023-03-14T06:44:06;92914.91;;;5.14;97.48
39223;BME280;24936;46.328;11.026;2023-03-14T06:46:32;92925.25;;;5.06;97.85
39223;BME280;24936;46.328;11.026;2023-03-14T06:48:57;92920.31;;;5.03;97.75
39223;BME280;24936;46.328;11.026;2023-03-14T06:51:23;92927.22;;;4.94;97.73
39223;BME280;24936;46.328;11.026;2023-03-14T06:53:48;92927.75;;;4.98;97.70
39223;BME280;24936;46.328;11.026;2023-03-14T06:56:14;92935.31;;;4.91;97.65
39223;BME280;24936;46.328;11.026;2023-03-14T06:58:39;92933.00;;;4.88;97.92
39223;BME280;24936;46.328;11.026;2023-03-14T07:01:05;92930.00;;;4.83;97.89
39223;BME280;24936;46.328;11.026;2023-03-14T07:03:30;92927.53;;;4.81;97.96
39223;BME280;24936;46.328;11.026;2023-03-14T07:05:56;92931.66;;;4.84;97.96
39223;BME280;24936;46.328;11.026;2023-03-14T07:08:22;92928.63;;;4.88;98.12
39223;BME280;24936;46.328;11.026;2023-03-14T07:10:47;92935.34;;;4.81;98.22
39223;BME280;24936;46.328;11.026;2023-03-14T07:13:12;92926.00;;;4.88;98.38
39223;BME280;24936;46.328;11.026;2023-03-14T07:15:38;92920.50;;;4.92;98.28
39223;BME280;24936;46.328;11.026;2023-03-14T07:18:03;92917.97;;;4.72;98.04
39223;BME280;24936;46.328;11.026;2023-03-14T07:20:29;92923.84;;;4.74;98.34
39223;BME280;24936;46.328;11.026;2023-03-14T07:22:57;92916.84;;;4.74;98.41
39223;BME280;24936;46.328;11.026;2023-03-14T07:25:24;92917.09;;;4.81;98.23
39223;BME280;24936;46.328;11.026;2023-03-14T07:27:50;92921.66;;;4.79;98.28
39223;BME280;24936;46.328;11.026;2023-03-14T07:30:15;92920.81;;;4.79;98.40
39223;BME280;24936;46.328;11.026;2023-03-14T07:32:41;92918.38;;;4.77;98.40
39223;BME280;24936;46.328;11.026;2023-03-14T07:35:07;92922.03;;;4.84;98.44
39223;BME280;24936;46.328;11.026;2023-03-14T07:37:33;92918.91;;;4.81;98.27
39223;BME280;24936;46.328;11.026;2023-03-14T07:39:58;92930.72;;;4.75;98.19
39223;BME280;24936;46.328;11.026;2023-03-14T07:42:23;92925.09;;;4.70;98.37
39223;BME280;24936;46.328;11.026;2023-03-14T07:44:49;92925.34;;;4.77;98.37
39223;BME280;24936;46.328;11.026;2023-03-14T07:47:14;92920.00;;;4.78;98.36
39223;BME280;24936;46.328;11.026;2023-03-14T07:49:40;92911.38;;;4.68;98.13
39223;BME280;24936;46.328;11.026;2023-03-14T07:52:05;92923.75;;;4.66;98.09
39223;BME280;24936;46.328;11.026;2023-03-14T07:54:31;92921.44;;;4.63;98.20
39223;BME280;24936;46.328;11.026;2023-03-14T07:56:56;92926.38;;;4.66;97.77
39223;BME280;24936;46.328;11.026;2023-03-14T07:59:23;92925.69;;;4.64;97.90
39223;BME280;24936;46.328;11.026;2023-03-14T08:01:49;92929.50;;;4.69;98.16
39223;BME280;24936;46.328;11.026;2023-03-14T08:04:14;92931.94;;;4.71;97.83
39223;BME280;24936;46.328;11.026;2023-03-14T08:06:40;92926.47;;;4.74;98.43
39223;BME280;24936;46.328;11.026;2023-03-14T08:09:05;92933.84;;;4.79;98.10
39223;BME280;24936;46.328;11.026;2023-03-14T08:11:34;92923.31;;;4.80;97.97
39223;BME280;24936;46.328;11.026;2023-03-14T08:13:59;92926.69;;;4.90;97.94
39223;BME280;24936;46.328;11.026;2023-03-14T08:16:25;92927.22;;;4.94;98.04
39223;BME280;24936;46.328;11.026;2023-03-14T08:18:51;92911.41;;;4.96;98.07
39223;BME280;24936;46.328;11.026;2023-03-14T08:21:16;92917.19;;;4.99;98.06
39223;BME280;24936;46.328;11.026;2023-03-14T08:23:42;92919.78;;;4.99;97.97
39223;BME280;24936;46.328;11.026;2023-03-14T08:26:07;92921.38;;;5.10;98.02
39223;BME280;24936;46.328;11.026;2023-03-14T08:28:33;92924.47;;;4.96;97.93
39223;BME280;24936;46.328;11.026;2023-03-14T08:30:59;92918.75;;;4.82;97.66
39223;BME280;24936;46.328;11.026;2023-03-14T08:33:27;92916.81;;;4.84;97.79
39223;BME280;24936;46.328;11.026;2023-03-14T08:35:53;92916.22;;;5.00;97.89
39223;BME280;24936;46.328;11.026;2023-03-14T08:38:18;92914.00;;;5.05;97.75
39223;BME280;24936;46.328;11.026;2023-03-14T08:40:44;92916.06;;;5.02;97.74
39223;BME280;24936;46.328;11.026;2023-03-14T08:43:09;92916.16;;;5.10;97.92
39223;BME280;24936;46.328;11.026;2023-03-14T08:45:35;92912.25;;;5.24;97.79
39223;BME280;24936;46.328;11.026;2023-03-14T08:48:00;92910.34;;;5.26;97.71
39223;BME280;24936;46.328;11.026;2023-03-14T08:50:26;92910.78;;;5.22;97.50
39223;BME280;24936;46.328;11.026;2023-03-14T08:52:51;92912.09;;;5.26;97.61
39223;BME280;24936;46.328;11.026;2023-03-14T08:55:17;92914.00;;;5.33;97.50
39223;BME280;24936;46.328;11.026;2023-03-14T08:57:43;92898.56;;;5.40;97.80
39223;BME280;24936;46.328;11.026;2023-03-14T09:00:08;92903.44;;;5.53;98.09
39223;BME280;24936;46.328;11.026;2023-03-14T09:02:41;92915.09;;;5.59;97.79
39223;BME280;24936;46.328;11.026;2023-03-14T09:05:07;92918.59;;;5.49;97.70
39223;BME280;24936;46.328;11.026;2023-03-14T09:07:32;92921.97;;;5.32;97.42
39223;BME280;24936;46.328;11.026;2023-03-14T09:09:58;92908.03;;;5.41;97.67
39223;BME280;24936;46.328;11.026;2023-03-14T09:12:23;92910.66;;;5.41;97.62
39223;BME280;24936;46.328;11.026;2023-03-14T09:14:49;92915.13;;;5.49;97.68
39223;BME280;24936;46.328;11.026;2023-03-14T09:17:15;92916.94;;;5.48;97.47
39223;BME280;24936;46.328;11.026;2023-03-14T09:19:40;92915.75;;;5.43;97.61
39223;BME280;24936;46.328;11.026;2023-03-14T09:22:06;92911.13;;;5.55;97.63
39223;BME280;24936;46.328;11.026;2023-03-14T09:24:31;92914.84;;;5.52;97.74
39223;BME280;24936;46.328;11.026;2023-03-14T09:26:57;92924.41;;;5.61;97.55
39223;BME280;24936;46.328;11.026;2023-03-14T09:29:22;92925.06;;;5.45;97.49
39223;BME280;24936;46.328;11.026;2023-03-14T09:31:48;92927.88;;;5.34;97.27
39223;BME280;24936;46.328;11.026;2023-03-14T09:34:13;92928.56;;;5.36;97.44
39223;BME280;24936;46.328;11.026;2023-03-14T09:36:39;92925.44;;;5.23;97.05
39223;BME280;24936;46.328;11.026;2023-03-14T09:39:05;92924.38;;;5.15;96.54
39223;BME280;24936;46.328;11.026;2023-03-14T09:41:34;92924.06;;;5.28;96.73
39223;BME280;24936;46.328;11.026;2023-03-14T09:44:10;92925.09;;;5.35;97.04
39223;BME280;24936;46.328;11.026;2023-03-14T09:46:39;92932.78;;;5.37;97.04
39223;BME280;24936;46.328;11.026;2023-03-14T09:49:41;92923.81;;;5.49;97.07
39223;BME280;24936;46.328;11.026;2023-03-14T09:52:31;92919.09;;;5.53;96.87
39223;BME280;24936;46.328;11.026;2023-03-14T09:55:02;92917.81;;;5.57;96.80
39223;BME280;24936;46.328;11.026;2023-03-14T09:57:29;92923.00;;;5.67;96.66
39223;BME280;24936;46.328;11.026;2023-03-14T09:59:57;92918.84;;;5.74;96.86
39223;BME280;24936;46.328;11.026;2023-03-14T10:02:31;92924.56;;;5.78;96.29
39223;BME280;24936;46.328;11.026;2023-03-14T10:04:59;92924.28;;;5.99;95.81
39223;BME280;24936;46.328;11.026;2023-03-14T10:07:28;92924.75;;;6.12;95.37
39223;BME280;24936;46.328;11.026;2023-03-14T10:09:55;92925.34;;;6.24;94.81
39223;BME280;24936;46.328;11.026;2023-03-14T10:12:31;92930.00;;;6.57;94.81
39223;BME280;24936;46.328;11.026;2023-03-14T10:15:03;92919.59;;;6.92;93.88
39223;BME280;24936;46.328;11.026;2023-03-14T10:17:41;92926.66;;;7.34;92.29
39223;BME280;24936;46.328;11.026;2023-03-14T10:20:14;92927.94;;;7.81;91.48
39223;BME280;24936;46.328;11.026;2023-03-14T10:22:50;92922.59;;;8.24;90.09
39223;BME280;24936;46.328;11.026;2023-03-14T10:25:26;92918.88;;;8.51;89.77
39223;BME280;24936;46.328;11.026;2023-03-14T10:27:52;92918.78;;;9.01;88.02
39223;BME280;24936;46.328;11.026;2023-03-14T10:30:30;92922.91;;;9.52;83.79
39223;BME280;24936;46.328;11.026;2023-03-14T10:33:07;92912.53;;;10.13;86.17
39223;BME280;24936;46.328;11.026;2023-03-14T10:35:33;92910.56;;;10.38;82.03
39223;BME280;24936;46.328;11.026;2023-03-14T10:38:03;92916.53;;;10.55;83.39
39223;BME280;24936;46.328;11.026;2023-03-14T10:40:49;92901.69;;;10.16;81.67
39223;BME280;24936;46.328;11.026;2023-03-14T10:43:19;92909.97;;;10.28;82.74
39223;BME280;24936;46.328;11.026;2023-03-14T10:45:57;92904.25;;;10.86;80.83
39223;BME280;24936;46.328;11.026;2023-03-14T10:48:37;92896.69;;;11.73;79.79
39223;BME280;24936;46.328;11.026;2023-03-14T10:56:22;92898.00;;;11.17;77.32
39223;BME280;24936;46.328;11.026;2023-03-14T10:58:52;92889.91;;;11.19;80.09
39223;BME280;24936;46.328;11.026;2023-03-14T11:01:25;92885.66;;;11.02;79.21
39223;BME280;24936;46.328;11.026;2023-03-14T11:03:57;92874.75;;;11.36;76.70
39223;BME280;24936;46.328;11.026;2023-03-14T11:06:54;92879.19;;;11.87;77.50
39223;BME280;24936;46.328;11.026;2023-03-14T11:09:42;92871.53;;;12.07;76.87
39223;BME280;24936;46.328;11.026;2023-03-14T11:15:02;92865.00;;;12.03;77.02
39223;BME280;24936;46.328;11.026;2023-03-14T11:17:37;92866.63;;;13.81;69.90
39223;BME280;24936;46.328;11.026;2023-03-14T11:20:12;92867.28;;;12.28;74.23
39223;BME280;24936;46.328;11.026;2023-03-14T11:30:51;92864.22;;;11.72;73.25
39223;BME280;24936;46.328;11.026;2023-03-14T11:33:39;92859.84;;;11.43;75.11
39223;BME280;24936;46.328;11.026;2023-03-14T11:36:24;92862.00;;;11.91;70.32
39223;BME280;24936;46.328;11.026;2023-03-14T11:42:12;92841.25;;;14.00;68.20
39223;BME280;24936;46.328;11.026;2023-03-14T11:44:40;92839.28;;;12.55;70.65
39223;BME280;24936;46.328;11.026;2023-03-14T11:52:35;92840.94;;;11.54;74.86
39223;BME280;24936;46.328;11.026;2023-03-14T11:55:19;92838.91;;;12.58;71.04
39223;BME280;24936;46.328;11.026;2023-03-14T11:57:47;92838.31;;;12.63;71.79
39223;BME280;24936;46.328;11.026;2023-03-14T12:00:21;92835.56;;;12.21;70.96
39223;BME280;24936;46.328;11.026;2023-03-14T12:03:02;92840.50;;;11.51;72.81
39223;BME280;24936;46.328;11.026;2023-03-14T12:08:44;92829.31;;;11.48;74.54
39223;BME280;24936;46.328;11.026;2023-03-14T12:11:16;92827.03;;;11.60;72.69
39223;BME280;24936;46.328;11.026;2023-03-14T12:13:47;92827.69;;;11.84;74.02
39223;BME280;24936;46.328;11.026;2023-03-14T12:18:49;92807.91;;;15.66;61.55
39223;BME280;24936;46.328;11.026;2023-03-14T12:21:15;92806.91;;;14.94;61.66
39223;BME280;24936;46.328;11.026;2023-03-14T12:23:55;92802.31;;;16.19;58.51
39223;BME280;24936;46.328;11.026;2023-03-14T12:26:26;92799.22;;;15.90;58.79
39223;BME280;24936;46.328;11.026;2023-03-14T12:41:53;92769.56;;;15.09;60.73
39223;BME280;24936;46.328;11.026;2023-03-14T12:46:57;92762.63;;;15.60;60.35
39223;BME280;24936;46.328;11.026;2023-03-14T12:49:29;92756.69;;;15.20;58.72
39223;BME280;24936;46.328;11.026;2023-03-14T12:52:00;92760.09;;;14.48;59.85
39223;BME280;24936;46.328;11.026;2023-03-14T12:57:26;92745.59;;;17.27;55.84
39223;BME280;24936;46.328;11.026;2023-03-14T13:02:23;92743.75;;;16.14;56.06
39223;BME280;24936;46.328;11.026;2023-03-14T13:04:53;92736.59;;;16.65;56.33
39223;BME280;24936;46.328;11.026;2023-03-14T13:07:34;92734.09;;;17.15;56.99
39223;BME280;24936;46.328;11.026;2023-03-14T13:12:38;92745.66;;;16.07;54.18
39223;BME280;24936;46.328;11.026;2023-03-14T13:15:56;92733.94;;;14.98;57.46
39223;BME280;24936;46.328;11.026;2023-03-14T13:18:10;92737.03;;;15.41;57.65
39223;BME280;24936;46.328;11.026;2023-03-14T13:20:45;92732.06;;;16.22;55.35
39223;BME280;24936;46.328;11.026;2023-03-14T13:23:29;92729.22;;;15.53;56.36
39223;BME280;24936;46.328;11.026;2023-03-14T13:25:55;92736.25;;;16.62;54.51
39223;BME280;24936;46.328;11.026;2023-03-14T13:28:21;92728.53;;;17.16;53.49
39223;BME280;24936;46.328;11.026;2023-03-14T13:30:49;92727.03;;;16.83;54.04
39223;BME280;24936;46.328;11.026;2023-03-14T13:33:21;92716.66;;;17.19;53.39
39223;BME280;24936;46.328;11.026;2023-03-14T13:36:05;92715.69;;;17.32;51.64
39223;BME280;24936;46.328;11.026;2023-03-14T13:38:34;92717.69;;;17.18;52.37
39223;BME280;24936;46.328;11.026;2023-03-14T13:41:04;92714.66;;;18.95;49.71
39223;BME280;24936;46.328;11.026;2023-03-14T13:43:49;92716.47;;;18.36;47.66
39223;BME280;24936;46.328;11.026;2023-03-14T13:46:23;92717.38;;;17.07;52.16
39223;BME280;24936;46.328;11.026;2023-03-14T13:48:56;92709.44;;;16.63;52.93
39223;BME280;24936;46.328;11.026;2023-03-14T13:51:23;92707.41;;;15.89;56.37
39223;BME280;24936;46.328;11.026;2023-03-14T13:53:54;92707.22;;;17.04;54.62
39223;BME280;24936;46.328;11.026;2023-03-14T13:56:22;92707.09;;;16.04;52.62
39223;BME280;24936;46.328;11.026;2023-03-14T13:58:48;92707.25;;;15.00;56.82
39223;BME280;24936;46.328;11.026;2023-03-14T14:01:26;92705.22;;;15.41;55.60
39223;BME280;24936;46.328;11.026;2023-03-14T14:03:55;92704.19;;;15.81;56.56
39223;BME280;24936;46.328;11.026;2023-03-14T14:06:38;92702.25;;;15.63;56.13
39223;BME280;24936;46.328;11.026;2023-03-14T14:09:16;92700.72;;;15.48;54.16
39223;BME280;24936;46.328;11.026;2023-03-14T14:14:19;92702.84;;;14.60;59.29